Time;durP1;ratioP1;P1;durP2;ratioP2;P2;SDS_P1;SDS_P2;PMS_P1;PMS_P2;Temp;Humidity;BMP_temperature;BMP_pressure;BME280_temperature;BME280_humidity;BME280_pressure;Samples;Min_cycle;Max_cycle;Signal;HPM_P1;HPM_P2
2024/01/04 00:01:13;;;;;;;3.77;2.30;;;8.20;99.90;;;;;;5108008;28;20209;-83
2024/01/04 00:03:41;;;;;;;5.43;2.70;;;8.20;99.90;;;;;;5126746;27;20221;-82
2024/01/04 00:06:08;;;;;;;4.83;3.27;;;8.10;99.90;;;;;;5106360;28;20231;-83
2024/01/04 00:08:35;;;;;;;5.70;2.93;;;8.10;99.90;;;;;;5122619;27;20209;-83
2024/01/04 00:11:04;;;;;;;6.40;3.17;;;8.10;99.90;;;;;;5120697;28;20201;-83
2024/01/04 00:13:31;;;;;;;4.27;3.10;;;8.10;99.90;;;;;;5103395;28;20229;-83
2024/01/04 00:15:57;;;;;;;4.53;3.10;;;8.10;99.90;;;;;;5108058;28;20208;-83
2024/01/04 00:18:24;;;;;;;5.00;3.27;;;8.10;99.90;;;;;;5121258;28;20284;-83
2024/01/04 00:20:52;;;;;;;6.23;3.70;;;8.10;99.90;;;;;;5120490;28;20209;-83
2024/01/04 00:23:19;;;;;;;6.23;3.80;;;8.10;99.90;;;;;;5116101;28;20228;-83
2024/01/04 00:25:46;;;;;;;6.17;3.97;;;8.10;99.90;;;;;;5122306;28;20204;-83
2024/01/04 00:28:13;;;;;;;6.10;4.00;;;8.20;99.90;;;;;;5122347;28;20203;-83
2024/01/04 00:30:40;;;;;;;8.20;4.80;;;8.20;99.90;;;;;;5121486;28;20219;-83
2024/01/04 00:33:07;;;;;;;9.50;4.90;;;8.20;99.90;;;;;;5121539;28;20227;-83
2024/01/04 00:35:33;;;;;;;9.50;4.73;;;8.20;99.90;;;;;;5115784;28;20256;-83
2024/01/04 00:38:02;;;;;;;7.23;4.63;;;8.20;99.90;;;;;;5121007;28;20192;-83
2024/01/04 00:40:29;;;;;;;8.00;5.80;;;8.30;99.90;;;;;;5122436;28;20204;-83
2024/01/04 00:42:57;;;;;;;10.27;5.30;;;8.20;99.90;;;;;;5121848;27;20299;-83
2024/01/04 00:45:24;;;;;;;10.27;5.63;;;8.30;99.90;;;;;;5122400;28;20197;-83
2024/01/04 00:47:50;;;;;;;8.13;4.67;;;8.40;99.90;;;;;;5119950;28;20201;-83
2024/01/04 00:50:17;;;;;;;6.17;4.70;;;8.20;99.90;;;;;;5121652;28;20193;-83
2024/01/04 00:52:44;;;;;;;12.27;5.07;;;8.40;99.90;;;;;;5119122;27;20219;-82
2024/01/04 00:55:12;;;;;;;9.77;5.00;;;8.30;99.90;;;;;;5117362;27;20224;-82
2024/01/04 00:57:39;;;;;;;11.23;4.57;;;8.10;99.90;;;;;;5115854;28;20228;-83
2024/01/04 01:00:07;;;;;;;9.53;4.70;;;8.10;99.90;;;;;;5107080;28;20228;-82
2024/01/04 01:02:34;;;;;;;6.33;3.67;;;8.10;99.90;;;;;;5122726;27;20212;-83
2024/01/04 01:05:01;;;;;;;4.13;3.50;;;8.00;99.90;;;;;;5121919;27;20213;-83
2024/01/04 01:07:28;;;;;;;5.13;3.53;;;8.00;99.90;;;;;;5116595;28;20674;-83
2024/01/04 01:09:54;;;;;;;4.20;3.17;;;8.00;99.90;;;;;;5118546;28;20558;-82
2024/01/04 01:12:23;;;;;;;4.63;3.40;;;7.90;99.90;;;;;;5128835;28;20208;-82
2024/01/04 01:14:49;;;;;;;5.90;2.90;;;7.90;99.90;;;;;;5116876;28;20232;-82
2024/01/04 01:17:16;;;;;;;5.10;2.97;;;7.90;99.90;;;;;;5116880;28;20220;-82
2024/01/04 01:19:43;;;;;;;7.83;3.53;;;7.90;99.90;;;;;;5112777;28;20207;-82
2024/01/04 01:22:10;;;;;;;4.13;3.00;;;8.00;99.90;;;;;;5111862;28;20200;-82
2024/01/04 01:24:36;;;;;;;5.43;2.63;;;8.00;99.90;;;;;;5118583;28;20636;-83
2024/01/04 01:27:04;;;;;;;3.27;2.07;;;7.90;99.90;;;;;;5118448;28;20243;-82
2024/01/04 01:29:32;;;;;;;2.07;1.80;;;7.80;99.90;;;;;;5115115;28;20506;-82
2024/01/04 01:31:58;;;;;;;3.30;2.03;;;7.90;99.90;;;;;;5099580;28;20383;-82
2024/01/04 01:34:25;;;;;;;3.37;2.47;;;7.90;99.90;;;;;;5112652;28;20228;-82
2024/01/04 01:36:52;;;;;;;5.23;2.00;;;8.10;99.90;;;;;;5114947;28;20197;-83
2024/01/04 01:39:19;;;;;;;2.13;1.73;;;7.90;99.90;;;;;;5116479;28;20208;-82
2024/01/04 01:41:46;;;;;;;2.70;2.10;;;7.90;99.90;;;;;;5107492;28;20207;-82
2024/01/04 01:44:13;;;;;;;2.57;2.00;;;7.80;99.90;;;;;;5100840;28;20227;-82
2024/01/04 01:46:41;;;;;;;2.37;2.17;;;7.80;99.90;;;;;;5115794;28;20590;-82
2024/01/04 01:49:08;;;;;;;2.37;2.17;;;7.80;99.90;;;;;;5119873;28;20203;-82
2024/01/04 01:51:35;;;;;;;3.83;2.73;;;7.80;99.90;;;;;;5106281;28;20560;-82
2024/01/04 01:54:02;;;;;;;2.30;2.10;;;7.80;99.90;;;;;;5117874;27;20678;-82
2024/01/04 01:56:29;;;;;;;4.20;2.93;;;7.80;99.90;;;;;;5122962;27;20287;-82
2024/01/04 01:58:58;;;;;;;4.53;2.83;;;7.80;99.90;;;;;;5113598;27;20198;-82
2024/01/04 02:01:25;;;;;;;7.57;3.03;;;8.10;99.90;;;;;;5121525;28;20218;-82
2024/01/04 02:03:53;;;;;;;3.20;2.70;;;7.80;99.90;;;;;;5123495;28;20224;-82
2024/01/04 02:06:19;;;;;;;3.87;2.33;;;7.80;99.90;;;;;;5122267;28;20212;-84
2024/01/04 02:08:49;;;;;;;4.00;2.67;;;7.80;99.90;;;;;;5123672;27;20203;-82
2024/01/04 02:11:16;;;;;;;2.53;1.60;;;7.80;99.90;;;;;;5116544;27;20643;-82
2024/01/04 02:13:42;;;;;;;1.40;1.10;;;7.90;99.90;;;;;;5110227;28;20757;-82
2024/01/04 02:16:09;;;;;;;2.53;1.27;;;7.80;99.90;;;;;;5116631;28;20200;-82
2024/01/04 02:18:36;;;;;;;1.37;1.27;;;7.80;99.90;;;;;;5121836;28;20618;-82
2024/01/04 02:21:05;;;;;;;1.80;0.97;;;7.80;99.90;;;;;;5119216;28;20208;-82
2024/01/04 02:23:34;;;;;;;1.03;0.73;;;7.90;99.90;;;;;;5123048;28;20709;-82
2024/01/04 02:26:01;;;;;;;1.37;0.90;;;7.80;99.90;;;;;;5117803;28;20201;-82
2024/01/04 02:28:28;;;;;;;2.77;0.87;;;7.80;99.90;;;;;;5116235;27;20201;-82
2024/01/04 02:30:55;;;;;;;1.33;1.23;;;7.80;99.90;;;;;;5115582;27;20236;-82
2024/01/04 02:33:22;;;;;;;2.27;1.07;;;7.80;99.90;;;;;;5112034;28;20223;-83
2024/01/04 02:35:49;;;;;;;1.87;1.03;;;7.80;99.90;;;;;;5112608;27;20227;-82
2024/01/04 02:38:16;;;;;;;1.53;1.30;;;7.90;99.90;;;;;;5113113;28;20595;-83
2024/01/04 02:40:45;;;;;;;1.47;1.00;;;7.90;99.90;;;;;;5120131;28;20558;-83
2024/01/04 02:43:12;;;;;;;2.60;1.13;;;7.90;99.90;;;;;;5109658;28;20228;-82
2024/01/04 02:45:39;;;;;;;3.30;1.07;;;7.90;99.90;;;;;;5113428;28;20197;-83
2024/01/04 02:48:06;;;;;;;3.53;1.10;;;7.90;99.90;;;;;;5122019;27;20272;-82
2024/01/04 02:50:33;;;;;;;1.37;1.00;;;7.90;99.90;;;;;;5111360;28;20197;-82
2024/01/04 02:53:00;;;;;;;1.50;1.20;;;7.90;99.90;;;;;;5118162;28;20223;-82
2024/01/04 02:55:27;;;;;;;3.37;1.57;;;7.90;99.90;;;;;;5114459;27;20782;-83
2024/01/04 02:57:55;;;;;;;1.80;1.30;;;7.90;99.90;;;;;;5113413;27;20651;-82
2024/01/04 03:00:22;;;;;;;3.40;1.20;;;7.90;99.90;;;;;;5126971;27;20197;-82
2024/01/04 03:02:49;;;;;;;0.97;0.90;;;7.90;1.00;;;;;;5121307;27;20232;-82
2024/01/04 03:05:18;;;;;;;3.40;1.30;;;7.90;99.90;;;;;;5114263;28;20216;-83
2024/01/04 03:07:44;;;;;;;2.30;1.20;;;7.80;1.00;;;;;;5110235;28;20233;-83
2024/01/04 03:10:11;;;;;;;1.57;1.17;;;7.80;1.00;;;;;;5116916;28;20227;-82
2024/01/04 03:12:38;;;;;;;2.10;0.97;;;7.80;1.00;;;;;;5114580;27;20313;-83
2024/01/04 03:15:08;;;;;;;3.47;1.63;;;7.80;1.00;;;;;;5114712;28;20240;-82
2024/01/04 03:17:35;;;;;;;1.07;0.97;;;7.70;45.60;;;;;;5109242;28;20201;-82
2024/01/04 03:20:02;;;;;;;2.13;1.10;;;7.80;99.90;;;;;;5121398;27;20287;-82
2024/01/04 03:22:29;;;;;;;1.00;1.00;;;7.70;99.90;;;;;;5120187;28;20604;-84
2024/01/04 03:24:55;;;;;;;3.40;1.30;;;7.70;99.90;;;;;;5110495;28;20204;-84
2024/01/04 03:27:22;;;;;;;1.77;0.90;;;7.70;99.90;;;;;;5113970;27;20211;-83
2024/01/04 03:29:52;;;;;;;1.40;0.90;;;7.70;99.90;;;;;;5125389;27;20223;-82
2024/01/04 03:32:20;;;;;;;2.00;1.20;;;7.70;99.90;;;;;;5109478;28;20665;-83
2024/01/04 03:34:47;;;;;;;2.07;1.10;;;7.80;65.90;;;;;;5121600;28;20220;-83
2024/01/04 03:37:13;;;;;;;1.37;1.10;;;7.80;99.90;;;;;;5103289;28;20285;-83
2024/01/04 03:39:40;;;;;;;1.70;0.93;;;8.00;1.00;;;;;;5109266;28;20216;-83
2024/01/04 03:42:07;;;;;;;3.37;1.40;;;7.80;1.00;;;;;;5108455;28;20201;-82
2024/01/04 03:44:34;;;;;;;3.20;1.50;;;7.80;19.70;;;;;;5119174;27;20189;-83
2024/01/04 03:47:01;;;;;;;1.73;1.37;;;7.70;99.90;;;;;;5105418;28;20208;-82
2024/01/04 03:49:29;;;;;;;2.93;1.50;;;7.70;99.90;;;;;;5114052;27;20292;-81
2024/01/04 03:51:56;;;;;;;2.70;1.60;;;7.70;99.90;;;;;;5107804;28;20197;-82
2024/01/04 03:54:23;;;;;;;3.20;1.40;;;7.60;99.90;;;;;;5110319;28;20217;-82
2024/01/04 03:56:49;;;;;;;1.83;1.33;;;7.60;99.90;;;;;;5111834;28;20208;-81
2024/01/04 03:59:16;;;;;;;1.17;1.07;;;7.60;99.90;;;;;;5113928;28;20204;-82
2024/01/04 04:01:44;;;;;;;2.60;1.63;;;7.70;99.90;;;;;;5113620;28;20197;-82
2024/01/04 04:04:12;;;;;;;1.73;1.40;;;7.60;99.90;;;;;;5117900;28;20604;-82
2024/01/04 04:06:40;;;;;;;2.80;1.90;;;7.50;99.90;;;;;;5112359;28;20200;-81
2024/01/04 04:09:07;;;;;;;5.43;1.93;;;7.50;99.90;;;;;;5112993;28;20200;-83
2024/01/04 04:11:34;;;;;;;3.97;1.73;;;7.50;99.90;;;;;;5109571;28;20254;-83
2024/01/04 04:14:01;;;;;;;3.10;1.53;;;7.50;20.10;;;;;;5126799;27;20292;-82
2024/01/04 04:16:28;;;;;;;2.47;1.83;;;7.50;1.00;;;;;;5114299;28;20227;-83
2024/01/04 04:18:55;;;;;;;3.03;1.70;;;7.60;1.00;;;;;;5112674;28;20198;-81
2024/01/04 04:21:23;;;;;;;3.53;1.70;;;7.50;1.00;;;;;;5107026;28;20665;-81
2024/01/04 04:23:51;;;;;;;1.63;1.40;;;7.50;1.00;;;;;;5113634;28;20284;-81
2024/01/04 04:26:18;;;;;;;1.27;1.07;;;7.50;1.00;;;;;;5115824;28;20674;-79
2024/01/04 04:28:45;;;;;;;1.93;1.50;;;7.50;1.00;;;;;;5106395;28;20227;-81
2024/01/04 04:31:15;;;;;;;2.07;1.07;;;7.50;99.90;;;;;;5102936;28;20273;-78
2024/01/04 04:33:44;;;;;;;8.00;0.90;;;7.50;99.90;;;;;;5114581;28;20217;-82
2024/01/04 04:36:11;;;;;;;0.87;0.77;;;7.40;38.10;;;;;;5101215;28;20221;-82
2024/01/04 04:38:38;;;;;;;0.57;0.57;;;7.40;1.00;;;;;;5107492;28;20197;-82
2024/01/04 04:41:07;;;;;;;2.57;0.60;;;7.40;99.90;;;;;;5105756;28;20205;-81
2024/01/04 04:43:35;;;;;;;0.57;0.40;;;7.40;99.90;;;;;;5110790;27;20213;-82
2024/01/04 04:46:04;;;;;;;0.83;0.50;;;7.30;1.00;;;;;;5109949;28;20197;-81
2024/01/04 04:48:31;;;;;;;0.70;0.60;;;7.30;1.00;;;;;;5104131;28;20731;-82
2024/01/04 04:50:58;;;;;;;0.60;0.60;;;7.20;1.00;;;;;;5111660;28;20562;-80
2024/01/04 04:53:24;;;;;;;1.13;0.60;;;7.20;1.00;;;;;;5111160;28;20228;-82
2024/01/04 04:55:51;;;;;;;0.37;0.37;;;7.20;1.00;;;;;;5115757;28;20225;-81
2024/01/04 04:58:19;;;;;;;4.33;0.50;;;7.20;1.00;;;;;;5107629;28;20197;-79
2024/01/04 05:00:46;;;;;;;2.73;1.27;;;7.40;99.90;;;;;;5117712;27;20200;-81
2024/01/04 05:03:13;;;;;;;0.83;0.83;;;7.10;1.00;;;;;;5112018;28;20216;-84
2024/01/04 05:05:40;;;;;;;1.70;0.80;;;6.80;1.00;;;;;;5110230;28;20206;-82
2024/01/04 05:08:08;;;;;;;0.80;0.80;;;6.60;99.90;;;;;;5111792;28;20197;-83
2024/01/04 05:10:35;;;;;;;1.23;0.67;;;6.60;63.30;;;;;;5111568;28;20208;-80
2024/01/04 05:13:03;;;;;;;0.70;0.70;;;6.50;1.00;;;;;;5113930;28;20220;-80
2024/01/04 05:15:31;;;;;;;1.73;0.90;;;6.30;1.00;;;;;;5113223;28;20252;-80
2024/01/04 05:17:58;;;;;;;3.57;0.70;;;6.20;1.00;;;;;;5111555;28;20193;-81
2024/01/04 05:20:25;;;;;;;1.33;0.73;;;6.20;99.90;;;;;;5114156;28;20197;-80
2024/01/04 05:22:52;;;;;;;0.90;0.70;;;6.20;99.90;;;;;;5112448;28;20225;-82
2024/01/04 05:25:18;;;;;;;0.60;0.60;;;6.10;99.90;;;;;;5107761;28;20200;-82
2024/01/04 05:27:45;;;;;;;0.60;0.50;;;6.00;99.90;;;;;;5106284;28;20281;-81
2024/01/04 05:30:12;;;;;;;0.40;0.40;;;5.90;99.90;;;;;;5102748;28;20197;-80
2024/01/04 05:32:40;;;;;;;2.17;0.40;;;5.90;99.90;;;;;;5095968;28;20220;-80
2024/01/04 05:35:08;;;;;;;1.37;0.50;;;5.80;99.90;;;;;;5104276;28;20677;-80
2024/01/04 05:37:34;;;;;;;0.63;0.40;;;5.90;99.90;;;;;;5105233;28;20202;-81
2024/01/04 05:40:02;;;;;;;0.43;0.20;;;5.90;99.90;;;;;;5105030;28;20197;-79
2024/01/04 05:42:29;;;;;;;0.97;0.30;;;5.90;87.80;;;;;;5108222;28;20213;-80
2024/01/04 05:44:56;;;;;;;1.23;0.30;;;6.00;1.00;;;;;;5102312;28;20202;-83
2024/01/04 05:47:23;;;;;;;1.70;0.50;;;5.90;1.00;;;;;;5100454;28;20218;-80
2024/01/04 05:49:51;;;;;;;0.30;0.30;;;6.00;1.00;;;;;;5100944;28;20197;-81
2024/01/04 05:52:18;;;;;;;1.63;0.50;;;5.90;1.00;;;;;;5112540;28;20232;-81
2024/01/04 05:54:45;;;;;;;0.47;0.40;;;5.90;99.90;;;;;;5115752;28;20193;-81
2024/01/04 05:57:12;;;;;;;1.10;0.50;;;5.80;99.90;;;;;;5109877;28;20217;-81
2024/01/04 05:59:38;;;;;;;3.37;0.63;;;5.80;99.90;;;;;;5111495;28;20204;-80
2024/01/04 06:02:05;;;;;;;0.60;0.53;;;5.70;99.90;;;;;;5110782;28;20578;-83
2024/01/04 06:04:32;;;;;;;1.77;1.00;;;5.70;99.90;;;;;;5108231;28;20258;-80
2024/01/04 06:07:00;;;;;;;2.70;1.33;;;5.60;99.90;;;;;;5109619;28;20689;-79
2024/01/04 06:09:27;;;;;;;3.07;1.07;;;5.50;99.90;;;;;;5108300;28;20204;-81
2024/01/04 06:11:54;;;;;;;1.47;0.90;;;5.40;99.90;;;;;;5110416;28;20198;-81
2024/01/04 06:14:21;;;;;;;3.47;1.30;;;5.40;99.90;;;;;;5116960;28;20312;-79
2024/01/04 06:16:47;;;;;;;4.57;1.67;;;5.40;99.90;;;;;;5110243;28;20309;-80
2024/01/04 06:19:14;;;;;;;5.47;1.43;;;5.50;1.00;;;;;;5120272;27;20284;-80
2024/01/04 06:21:41;;;;;;;1.10;1.00;;;5.60;1.00;;;;;;5112510;28;20203;-81
2024/01/04 06:24:09;;;;;;;3.70;1.40;;;5.60;99.90;;;;;;5106844;28;20221;-81
2024/01/04 06:26:36;;;;;;;2.77;1.40;;;5.70;1.00;;;;;;5121796;28;20192;-83
2024/01/04 06:29:03;;;;;;;1.17;1.07;;;5.70;99.90;;;;;;5099439;28;20228;-81
2024/01/04 06:31:30;;;;;;;0.77;0.77;;;5.80;1.00;;;;;;5111031;28;20667;-82
2024/01/04 06:33:56;;;;;;;1.33;0.80;;;5.70;1.00;;;;;;5107634;28;20599;-81
2024/01/04 06:36:24;;;;;;;0.60;0.60;;;5.70;99.90;;;;;;5106788;28;20225;-82
2024/01/04 06:38:51;;;;;;;1.87;0.83;;;5.70;1.00;;;;;;5105944;28;20686;-82
2024/01/04 06:41:20;;;;;;;3.67;0.83;;;5.70;1.00;;;;;;5099202;28;21261;-81
2024/01/04 06:43:47;;;;;;;0.80;0.80;;;5.70;1.00;;;;;;5102052;28;20213;-82
2024/01/04 06:46:15;;;;;;;1.10;0.80;;;5.70;1.00;;;;;;5105013;28;20207;-81
2024/01/04 06:48:42;;;;;;;1.63;0.87;;;5.60;1.00;;;;;;5118654;27;20224;-81
2024/01/04 06:51:10;;;;;;;1.80;0.67;;;5.70;99.90;;;;;;5109875;28;20205;-82
2024/01/04 06:53:37;;;;;;;1.80;1.10;;;5.70;1.00;;;;;;5107181;28;20691;-80
2024/01/04 06:56:04;;;;;;;1.37;0.67;;;5.70;99.90;;;;;;5112089;28;20580;-79
2024/01/04 06:58:33;;;;;;;1.07;0.80;;;5.70;1.00;;;;;;5106289;28;20668;-82
2024/01/04 07:01:00;;;;;;;0.90;0.40;;;5.70;99.90;;;;;;5112895;28;20313;-80
2024/01/04 07:03:27;;;;;;;0.77;0.50;;;5.70;99.90;;;;;;5113292;28;20213;-81
2024/01/04 07:05:53;;;;;;;2.70;0.73;;;5.70;99.90;;;;;;5115197;28;20210;-80
2024/01/04 07:08:20;;;;;;;1.97;0.73;;;5.70;1.00;;;;;;5108997;28;20204;-82
2024/01/04 07:10:47;;;;;;;1.10;0.80;;;5.90;1.00;;;;;;5112878;28;20197;-82
2024/01/04 07:13:14;;;;;;;1.97;0.90;;;5.70;1.00;;;;;;5111990;28;20213;-81
2024/01/04 07:15:42;;;;;;;1.27;1.10;;;5.70;99.90;;;;;;5114881;27;20311;-81
2024/01/04 07:18:09;;;;;;;4.37;1.13;;;5.80;99.90;;;;;;5117150;28;20284;-79
2024/01/04 07:20:35;;;;;;;1.13;0.83;;;5.70;99.90;;;;;;5116216;28;20200;-81
2024/01/04 07:23:02;;;;;;;0.83;0.73;;;5.70;99.90;;;;;;5118856;27;20213;-82
2024/01/04 07:25:30;;;;;;;12.30;1.47;;;5.70;99.90;;;;;;5121489;27;20284;-82
2024/01/04 07:27:57;;;;;;;2.70;0.63;;;5.70;99.90;;;;;;5115791;28;20258;-82
2024/01/04 07:30:24;;;;;;;0.50;0.50;;;5.70;1.00;;;;;;5117535;28;20225;-81
2024/01/04 07:32:52;;;;;;;1.27;0.60;;;5.80;1.00;;;;;;5114400;28;20566;-83
2024/01/04 07:35:23;;;;;;;2.37;0.80;;;5.80;1.00;;;;;;5106589;28;20202;-83
2024/01/04 07:37:50;;;;;;;2.70;0.80;;;5.90;1.00;;;;;;5106923;28;20245;-82
2024/01/04 07:40:16;;;;;;;2.23;0.83;;;5.80;1.00;;;;;;5102039;28;20208;-80
2024/01/04 07:42:43;;;;;;;0.70;0.57;;;5.70;1.00;;;;;;5109889;28;20694;-80
2024/01/04 07:45:10;;;;;;;1.23;0.60;;;5.70;1.00;;;;;;5109260;28;20201;-81
2024/01/04 07:47:37;;;;;;;2.40;1.00;;;5.70;1.00;;;;;;5103799;28;20270;-79
2024/01/04 07:50:06;;;;;;;1.27;0.70;;;5.70;1.00;;;;;;5109274;28;20250;-81
2024/01/04 07:52:33;;;;;;;1.03;0.70;;;5.70;1.00;;;;;;5108472;28;20228;-80
2024/01/04 07:55:00;;;;;;;2.43;0.70;;;5.70;1.00;;;;;;5108811;28;20202;-80
2024/01/04 07:57:27;;;;;;;0.97;0.80;;;5.70;1.00;;;;;;5109875;28;20276;-80
2024/01/04 07:59:54;;;;;;;2.73;1.17;;;5.80;1.00;;;;;;5112954;28;20671;-80
2024/01/04 08:02:20;;;;;;;1.37;0.73;;;5.60;1.00;;;;;;5110280;28;20611;-80
2024/01/04 08:04:47;;;;;;;4.87;0.83;;;5.70;1.00;;;;;;5107044;28;20204;-80
2024/01/04 08:07:15;;;;;;;0.57;0.53;;;5.70;1.00;;;;;;5113077;28;20193;-82
2024/01/04 08:09:42;;;;;;;1.47;0.80;;;5.70;99.90;;;;;;5109278;28;20204;-83
2024/01/04 08:12:12;;;;;;;1.07;0.67;;;5.70;99.90;;;;;;5113948;28;20641;-82
2024/01/04 08:14:39;;;;;;;1.10;0.60;;;5.70;99.90;;;;;;5114138;28;20201;-82
2024/01/04 08:17:06;;;;;;;0.63;0.63;;;5.70;99.90;;;;;;5116582;27;20312;-81
2024/01/04 08:19:32;;;;;;;1.33;0.70;;;5.60;99.90;;;;;;5112599;28;20204;-83
2024/01/04 08:21:59;;;;;;;2.67;0.83;;;5.60;99.90;;;;;;5112569;28;20240;-81
2024/01/04 08:24:28;;;;;;;1.07;0.63;;;5.60;99.90;;;;;;5115450;28;20256;-80
2024/01/04 08:26:55;;;;;;;1.67;0.53;;;5.60;99.90;;;;;;5112130;28;20258;-82
2024/01/04 08:29:22;;;;;;;1.73;0.80;;;5.70;99.90;;;;;;5114096;28;20204;-81
2024/01/04 08:31:49;;;;;;;3.27;0.80;;;5.60;99.90;;;;;;5114384;28;20232;-80
2024/01/04 08:34:16;;;;;;;3.77;1.20;;;5.70;99.90;;;;;;5116884;27;20227;-79
2024/01/04 08:36:43;;;;;;;1.93;1.00;;;5.80;99.90;;;;;;5126837;27;20225;-82
2024/01/04 08:39:10;;;;;;;3.60;1.37;;;5.70;99.90;;;;;;5118076;27;20197;-81
2024/01/04 08:41:38;;;;;;;2.77;0.80;;;5.80;99.90;;;;;;5104150;28;20204;-80
2024/01/04 08:44:05;;;;;;;1.60;0.53;;;5.80;99.90;;;;;;5101963;27;20576;-80
2024/01/04 08:46:36;;;;;;;1.13;0.90;;;5.80;99.90;;;;;;5107385;28;20198;-80
2024/01/04 08:49:04;;;;;;;4.73;0.60;;;5.80;71.10;;;;;;5106846;28;20710;-81
2024/01/04 08:51:31;;;;;;;1.40;0.53;;;5.70;18.40;;;;;;5110985;28;20189;-80
2024/01/04 08:53:58;;;;;;;1.33;0.73;;;5.70;27.70;;;;;;5107768;28;20228;-81
2024/01/04 08:56:24;;;;;;;1.70;0.97;;;5.70;1.00;;;;;;5107551;28;20686;-81
2024/01/04 08:58:52;;;;;;;2.00;0.97;;;5.70;52.10;;;;;;5113698;28;20656;-81
2024/01/04 09:01:19;;;;;;;1.10;0.67;;;5.70;48.80;;;;;;5104077;28;20197;-81
2024/01/04 09:03:46;;;;;;;2.00;0.60;;;5.70;29.30;;;;;;5111342;28;20217;-82
2024/01/04 09:06:13;;;;;;;1.13;0.80;;;5.70;99.90;;;;;;5108414;28;20209;-80
2024/01/04 09:08:40;;;;;;;1.87;1.00;;;5.60;99.90;;;;;;5112186;27;20201;-80
2024/01/04 09:11:07;;;;;;;3.40;0.83;;;5.60;99.90;;;;;;5111359;28;20211;-82
2024/01/04 09:13:34;;;;;;;2.10;0.90;;;5.60;99.90;;;;;;5110807;28;20227;-81
2024/01/04 09:16:03;;;;;;;2.03;0.93;;;5.50;99.90;;;;;;5113327;28;20205;-82
2024/01/04 09:18:29;;;;;;;2.60;0.80;;;5.60;99.90;;;;;;5113722;28;20563;-83
2024/01/04 09:20:56;;;;;;;5.03;1.00;;;5.70;99.90;;;;;;5113569;28;20202;-81
2024/01/04 09:23:23;;;;;;;1.40;0.90;;;5.60;99.90;;;;;;5112547;28;20213;-80
2024/01/04 09:25:50;;;;;;;0.80;0.50;;;5.60;99.90;;;;;;5117403;27;20216;-80
2024/01/04 09:28:18;;;;;;;2.30;0.60;;;5.60;75.20;;;;;;5119945;28;20201;-79
2024/01/04 09:30:45;;;;;;;3.33;0.80;;;5.60;99.90;;;;;;5113384;28;20212;-80
2024/01/04 09:33:15;;;;;;;2.73;1.20;;;5.50;99.90;;;;;;5111849;28;20221;-81
2024/01/04 09:35:42;;;;;;;1.53;1.40;;;5.40;1.00;;;;;;5117029;28;20203;-80
2024/01/04 09:38:08;;;;;;;3.17;1.33;;;5.30;1.00;;;;;;5107710;28;20599;-81
2024/01/04 09:40:35;;;;;;;2.57;1.30;;;5.20;1.00;;;;;;5112433;28;20548;-80
2024/01/04 09:43:03;;;;;;;1.43;1.00;;;5.10;99.90;;;;;;5122069;28;20667;-80
2024/01/04 09:45:30;;;;;;;1.20;1.00;;;5.00;99.90;;;;;;5120332;27;20197;-81
2024/01/04 09:48:00;;;;;;;2.60;1.20;;;5.00;1.00;;;;;;5103764;28;20198;-80
2024/01/04 09:50:28;;;;;;;1.13;1.07;;;5.10;1.00;;;;;;5111313;28;20208;-81
2024/01/04 09:52:56;;;;;;;1.50;1.10;;;5.00;1.00;;;;;;5104809;28;20316;-81
2024/01/04 09:55:24;;;;;;;3.27;1.17;;;5.10;1.00;;;;;;5108046;28;20258;-80
2024/01/04 09:57:51;;;;;;;2.10;1.40;;;5.00;1.00;;;;;;5114068;28;20702;-79
2024/01/04 10:00:18;;;;;;;1.57;1.10;;;5.10;1.00;;;;;;5112194;28;20205;-80
2024/01/04 10:02:45;;;;;;;0.90;0.87;;;5.00;1.00;;;;;;5111505;28;20221;-80
2024/01/04 10:05:16;;;;;;;1.23;1.13;;;4.90;1.00;;;;;;5116309;28;20211;-80
2024/01/04 10:07:53;;;;;;;1.90;0.90;;;5.00;1.00;;;;;;5121695;28;20191;-81
2024/01/04 10:10:23;;;;;;;1.90;1.20;;;5.10;1.00;;;;;;5121413;28;20288;-79
2024/01/04 10:12:50;;;;;;;2.83;1.70;;;4.90;1.00;;;;;;5116640;28;20221;-80
2024/01/04 10:15:17;;;;;;;3.17;1.00;;;5.00;1.00;;;;;;5120771;28;20690;-80
2024/01/04 10:17:45;;;;;;;2.30;1.00;;;5.00;1.00;;;;;;5117271;28;20223;-81
2024/01/04 10:20:12;;;;;;;1.20;0.90;;;5.00;1.00;;;;;;5119864;28;20219;-82
2024/01/04 10:22:40;;;;;;;2.00;0.93;;;4.90;99.90;;;;;;5113883;27;20223;-84
2024/01/04 10:25:09;;;;;;;0.90;0.90;;;4.90;99.90;;;;;;5109410;28;20565;-80
2024/01/04 10:27:36;;;;;;;0.80;0.80;;;4.90;99.90;;;;;;5116150;27;20193;-80
2024/01/04 10:30:05;;;;;;;1.77;1.03;;;4.90;41.30;;;;;;5114958;28;20208;-80
2024/01/04 10:32:32;;;;;;;0.93;0.93;;;5.00;99.90;;;;;;5113510;28;20308;-82
2024/01/04 10:35:05;;;;;;;1.67;1.03;;;5.00;91.60;;;;;;5116350;27;20204;-80
2024/01/04 10:37:32;;;;;;;1.13;0.70;;;5.00;99.90;;;;;;5109132;28;20213;-79
2024/01/04 10:40:01;;;;;;;1.90;1.00;;;5.00;99.90;;;;;;5115387;28;20201;-80
2024/01/04 10:42:30;;;;;;;1.20;1.10;;;5.00;99.90;;;;;;5116297;28;20252;-83
2024/01/04 10:44:58;;;;;;;1.30;1.00;;;5.00;55.80;;;;;;5117562;28;20211;-81
2024/01/04 10:47:25;;;;;;;2.33;1.60;;;5.10;1.00;;;;;;5119853;27;20235;-80
2024/01/04 10:49:59;;;;;;;2.07;1.00;;;5.00;1.00;;;;;;5121694;27;20564;-81
2024/01/04 10:52:30;;;;;;;1.20;1.10;;;5.00;1.00;;;;;;5118187;27;20224;-81
2024/01/04 10:54:59;;;;;;;2.00;1.03;;;5.00;1.00;;;;;;5119686;28;20205;-83
2024/01/04 10:57:28;;;;;;;1.17;1.00;;;5.00;1.00;;;;;;5112472;28;20228;-81
2024/01/04 10:59:56;;;;;;;1.30;1.20;;;5.00;1.00;;;;;;5112535;28;20202;-82
2024/01/04 11:02:26;;;;;;;1.80;1.17;;;5.10;1.00;;;;;;5109801;28;20227;-81
2024/01/04 11:04:53;;;;;;;1.23;1.07;;;5.10;1.00;;;;;;5108772;28;20205;-81
2024/01/04 11:07:20;;;;;;;3.30;1.20;;;5.20;1.00;;;;;;5113780;28;20722;-82
2024/01/04 11:09:48;;;;;;;3.37;1.33;;;5.00;1.00;;;;;;5115579;27;20738;-82
2024/01/04 11:12:16;;;;;;;2.87;1.10;;;5.10;1.00;;;;;;5117840;27;20239;-80
2024/01/04 11:14:43;;;;;;;1.47;1.33;;;5.10;1.00;;;;;;5113616;27;20671;-81
2024/01/04 11:17:29;;;;;;;1.43;1.20;;;5.10;1.00;;;;;;5107554;28;20663;-84
2024/01/04 11:20:16;;;;;;;1.53;1.20;;;5.20;1.00;;;;;;5115093;28;20202;-82
2024/01/04 11:23:11;;;;;;;2.53;1.20;;;5.30;1.00;;;;;;5109413;28;20227;-80
2024/01/04 11:26:06;;;;;;;2.50;1.17;;;5.20;1.00;;;;;;5114506;28;20203;-81
2024/01/04 11:28:33;;;;;;;2.97;1.30;;;5.30;1.00;;;;;;5110699;28;20563;-81
2024/01/04 11:31:00;;;;;;;1.80;1.37;;;5.40;1.00;;;;;;5109382;28;20207;-81
2024/01/04 11:33:29;;;;;;;3.27;1.33;;;5.50;1.00;;;;;;5110275;28;20217;-81
2024/01/04 11:35:56;;;;;;;3.07;1.50;;;5.50;1.00;;;;;;5114168;28;20205;-80
2024/01/04 11:38:24;;;;;;;2.23;1.37;;;5.50;1.00;;;;;;5115659;28;20227;-81
2024/01/04 11:40:52;;;;;;;1.77;1.20;;;5.50;1.00;;;;;;5116200;28;20201;-81
2024/01/04 11:43:19;;;;;;;2.70;2.30;;;5.60;1.00;;;;;;5119803;27;20221;-81
2024/01/04 11:45:46;;;;;;;1.53;1.43;;;5.50;1.00;;;;;;5116670;28;20207;-80
2024/01/04 11:48:13;;;;;;;2.20;1.30;;;5.40;1.00;;;;;;5114293;28;20265;-80
2024/01/04 11:50:49;;;;;;;1.43;1.20;;;5.40;99.90;;;;;;5111495;28;20204;-80
2024/01/04 11:53:18;;;;;;;3.83;1.47;;;5.40;99.90;;;;;;5112057;28;20217;-80
2024/01/04 11:55:45;;;;;;;2.97;1.27;;;5.40;99.90;;;;;;5115194;28;20197;-84
2024/01/04 11:58:13;;;;;;;2.30;1.83;;;5.40;99.90;;;;;;5115726;28;20284;-81
2024/01/04 12:00:47;;;;;;;3.40;1.60;;;5.30;99.90;;;;;;5109561;28;20201;-80
2024/01/04 12:03:15;;;;;;;1.93;1.60;;;5.40;99.90;;;;;;5106399;28;20225;-80
2024/01/04 12:05:46;;;;;;;1.00;1.00;;;5.30;99.90;;;;;;5105096;28;20215;-82
2024/01/04 12:08:24;;;;;;;1.67;1.40;;;5.30;99.90;;;;;;5116106;28;20204;-82
2024/01/04 12:10:52;;;;;;;2.40;1.50;;;5.40;99.90;;;;;;5114227;28;20205;-82
2024/01/04 12:13:19;;;;;;;1.70;1.50;;;5.40;99.90;;;;;;5115241;28;20574;-81
2024/01/04 12:15:46;;;;;;;1.57;1.47;;;5.40;99.90;;;;;;5113507;28;20267;-80
2024/01/04 12:18:14;;;;;;;2.50;1.70;;;5.40;99.90;;;;;;5116426;28;20231;-82
2024/01/04 12:20:40;;;;;;;1.67;1.50;;;5.40;99.90;;;;;;5114673;28;20208;-81
2024/01/04 12:23:08;;;;;;;2.17;1.70;;;5.40;99.90;;;;;;5115088;27;20213;-81
2024/01/04 12:25:38;;;;;;;3.00;1.73;;;5.40;99.90;;;;;;5115738;28;20197;-80
2024/01/04 12:28:06;;;;;;;5.30;2.20;;;5.40;99.90;;;;;;5116310;28;20192;-82
2024/01/04 12:30:35;;;;;;;4.20;2.10;;;5.40;93.70;;;;;;5111401;28;20204;-80
2024/01/04 12:33:02;;;;;;;2.27;2.07;;;5.30;99.90;;;;;;5116368;28;20221;-79
2024/01/04 12:35:29;;;;;;;2.37;1.70;;;5.30;99.90;;;;;;5115256;28;20215;-81
2024/01/04 12:38:00;;;;;;;3.20;1.60;;;5.30;99.90;;;;;;5113233;28;20589;-83
2024/01/04 12:40:26;;;;;;;4.27;1.80;;;5.30;99.90;;;;;;5110375;28;20582;-82
2024/01/04 12:42:55;;;;;;;2.83;1.57;;;5.30;99.90;;;;;;5109405;28;20217;-84
2024/01/04 12:45:22;;;;;;;2.63;1.67;;;5.30;99.90;;;;;;5111082;28;20197;-81
2024/01/04 12:47:49;;;;;;;3.53;2.07;;;5.30;99.90;;;;;;5113570;28;20644;-82
2024/01/04 12:50:19;;;;;;;2.73;1.63;;;5.30;99.90;;;;;;5115040;27;20203;-80
2024/01/04 12:52:46;;;;;;;2.77;1.50;;;5.30;73.50;;;;;;5112932;28;20273;-80
2024/01/04 12:55:13;;;;;;;2.17;1.97;;;5.20;1.00;;;;;;5112218;28;20200;-82
2024/01/04 12:57:40;;;;;;;2.33;1.60;;;5.20;1.00;;;;;;5112808;28;20231;-81
2024/01/04 13:00:12;;;;;;;3.83;2.23;;;5.30;17.30;;;;;;5115383;28;20203;-82
2024/01/04 13:02:39;;;;;;;5.17;2.10;;;5.30;1.60;;;;;;5113081;28;20351;-82